createdAt,value
2022-11-08T00:00:06.360Z,76.88
2022-11-08T00:05:11.867Z,76.50
2022-11-08T00:10:15.132Z,76.88
2022-11-08T00:15:18.334Z,77.49
2022-11-08T00:20:21.585Z,77.60
2022-11-08T00:25:25.389Z,76.88
2022-11-08T00:30:28.804Z,77.25
2022-11-08T00:35:31.980Z,77.40
2022-11-08T00:40:41.443Z,77.65
2022-11-08T00:45:45.185Z,77.45
2022-11-08T00:50:48.666Z,77.56
2022-11-08T00:55:59.570Z,78.52
2022-11-08T01:01:09.837Z,78.87
2022-11-08T01:06:15.095Z,78.73
2022-11-08T01:11:24.094Z,78.51
2022-11-08T01:16:31.422Z,79.35
2022-11-08T01:21:34.954Z,78.90
2022-11-08T01:26:38.171Z,78.57
2022-11-08T01:31:41.592Z,78.49
2022-11-08T01:36:44.884Z,78.67
2022-11-08T01:41:47.994Z,78.75
2022-11-08T01:46:51.275Z,78.47
2022-11-08T01:52:02.309Z,78.59
2022-11-08T01:57:11.282Z,79.03
2022-11-08T02:02:15.854Z,79.24
2022-11-08T02:07:19.343Z,79.38
2022-11-08T02:12:22.632Z,78.68
2022-11-08T02:17:25.700Z,79.22
2022-11-08T02:22:34.792Z,78.89
2022-11-08T02:27:38.574Z,79.22
2022-11-08T02:32:42.778Z,79.84
2022-11-08T02:37:47.013Z,79.77
2022-11-08T02:42:52.192Z,80.08
2022-11-08T02:47:55.961Z,80.27
2022-11-08T02:52:59.437Z,80.63
2022-11-08T02:58:03.531Z,80.59
2022-11-08T03:03:06.637Z,80.70
2022-11-08T03:08:10.582Z,80.64
2022-11-08T03:13:14.275Z,80.87
2022-11-08T03:18:17.807Z,80.87
2022-11-08T03:23:21.085Z,81.49
2022-11-08T03:28:24.550Z,81.17
2022-11-08T03:33:28.417Z,81.06
2022-11-08T03:38:31.820Z,81.03
2022-11-08T03:43:34.874Z,80.40
2022-11-08T03:48:38.042Z,80.80
2022-11-08T03:53:41.108Z,80.76
2022-11-08T03:58:44.316Z,80.93
2022-11-08T04:03:47.799Z,81.01
2022-11-08T04:08:52.483Z,81.08
2022-11-08T04:13:55.948Z,81.54
2022-11-08T04:19:00.601Z,81.21
2022-11-08T04:24:04.220Z,81.64
2022-11-08T04:29:08.887Z,81.79
2022-11-08T04:34:12.570Z,81.57
2022-11-08T04:39:16.032Z,81.48
2022-11-08T04:44:19.703Z,81.85
2022-11-08T04:49:22.920Z,81.50
2022-11-08T04:54:26.023Z,81.22
2022-11-08T04:59:29.226Z,81.10
2022-11-08T05:04:32.325Z,81.11
2022-11-08T05:09:35.561Z,80.76
2022-11-08T05:14:38.980Z,80.70
2022-11-08T05:19:41.868Z,80.48
2022-11-08T05:24:44.891Z,80.34
2022-11-08T05:29:48.325Z,80.41
2022-11-08T05:34:51.820Z,80.82
2022-11-08T05:39:55.330Z,80.94
2022-11-08T05:44:58.804Z,81.25
2022-11-08T05:50:02.258Z,81.23
2022-11-08T05:55:07.008Z,81.56
2022-11-08T06:00:12.541Z,81.36
2022-11-08T06:05:16.691Z,80.44
2022-11-08T06:10:20.677Z,80.64
2022-11-08T06:15:24.136Z,80.74
2022-11-08T06:20:27.458Z,80.95
2022-11-08T06:25:30.724Z,80.74
2022-11-08T06:30:33.745Z,80.24
2022-11-08T06:35:37.697Z,80.48
2022-11-08T06:40:41.200Z,80.26
2022-11-08T06:45:46.647Z,79.58
2022-11-08T06:50:50.103Z,77.58
2022-11-08T06:55:53.798Z,78.50
2022-11-08T07:00:57.519Z,79.13
2022-11-08T07:06:05.610Z,79.44
2022-11-08T07:11:09.285Z,79.24
2022-11-08T07:16:12.566Z,78.74
2022-11-08T07:21:16.675Z,78.61
2022-11-08T07:26:20.004Z,78.45
2022-11-08T07:31:23.221Z,78.22
2022-11-08T07:36:26.500Z,77.43
2022-11-08T07:41:32.900Z,76.68
2022-11-08T07:46:39.554Z,76.28
2022-11-08T07:51:42.836Z,76.23
2022-11-08T07:56:45.666Z,75.72
2022-11-08T08:01:48.763Z,76.63
2022-11-08T08:06:52.330Z,77.79
2022-11-08T08:11:55.798Z,78.86
2022-11-08T08:16:59.684Z,79.07
2022-11-08T08:22:03.187Z,80.09
2022-11-08T08:27:06.377Z,80.92
2022-11-08T08:32:09.279Z,80.42
2022-11-08T08:37:12.770Z,80.43
2022-11-08T08:42:16.345Z,80.90
2022-11-08T08:47:19.819Z,81.06
2022-11-08T08:52:23.593Z,81.39
2022-11-08T08:57:26.939Z,82.88
2022-11-08T09:02:30.044Z,83.24
2022-11-08T09:07:33.258Z,82.49
2022-11-08T09:12:37.253Z,82.61
2022-11-08T09:17:41.013Z,82.10
2022-11-08T09:22:44.745Z,82.34
2022-11-08T09:27:48.141Z,82.42
2022-11-08T09:33:01.748Z,82.55
2022-11-08T09:38:05.855Z,82.67
2022-11-08T09:43:47.990Z,82.05
2022-11-08T09:48:52.371Z,81.47
2022-11-08T09:53:59.215Z,81.78
2022-11-08T09:59:11.554Z,82.73
2022-11-08T10:04:24.260Z,83.14
2022-11-08T10:09:48.289Z,83.31
2022-11-08T10:15:38.354Z,83.42
2022-11-08T10:21:06.359Z,83.79
2022-11-08T10:26:25.706Z,84.38
2022-11-08T10:31:31.957Z,84.38
2022-11-08T10:36:42.651Z,84.51
2022-11-08T10:42:22.330Z,84.64
2022-11-08T10:47:29.843Z,84.96
2022-11-08T10:52:45.634Z,85.06
2022-11-08T10:57:48.974Z,85.53
2022-11-08T11:03:20.552Z,85.42
2022-11-08T11:08:24.376Z,85.52
2022-11-08T11:13:29.122Z,85.73
2022-11-08T11:18:34.762Z,85.46
2022-11-08T11:23:50.443Z,85.46
2022-11-08T11:29:06.005Z,85.03
2022-11-08T11:34:18.308Z,85.08
2022-11-08T11:39:36.875Z,85.04
2022-11-08T11:45:00.877Z,84.97
2022-11-08T11:50:16.081Z,84.42
2022-11-08T11:55:24.870Z,84.32
2022-11-08T12:00:28.306Z,83.91
2022-11-08T12:05:56.837Z,83.58
2022-11-08T12:11:32.093Z,82.75
2022-11-08T12:17:00.116Z,82.40
2022-11-08T12:22:51.348Z,82.18
2022-11-08T12:28:10.325Z,81.72
2022-11-08T12:33:22.443Z,81.72
2022-11-08T12:38:37.177Z,81.53
2022-11-08T12:44:05.269Z,81.26
2022-11-08T12:49:44.161Z,80.89
2022-11-08T12:55:03.350Z,80.66
2022-11-08T13:00:15.077Z,80.34
2022-11-08T13:05:27.372Z,80.14
2022-11-08T13:10:37.037Z,80.23
2022-11-08T13:16:10.395Z,79.76
2022-11-08T13:21:29.052Z,79.47
2022-11-08T13:26:37.285Z,78.93
2022-11-08T13:31:54.591Z,78.60
2022-11-08T13:37:30.394Z,78.67
2022-11-08T13:42:33.987Z,78.32
2022-11-08T13:47:37.300Z,77.99
2022-11-08T13:52:47.157Z,77.66
2022-11-08T13:58:01.585Z,77.69
2022-11-08T14:03:33.551Z,77.53
2022-11-08T14:08:48.928Z,77.48
2022-11-08T14:14:03.995Z,77.29
2022-11-08T14:19:23.458Z,77.18
2022-11-08T14:24:35.784Z,77.14
2022-11-08T14:29:39.237Z,77.33
2022-11-08T14:34:43.351Z,77.28
2022-11-08T14:39:47.761Z,77.09
2022-11-08T14:44:53.745Z,76.91
2022-11-08T14:49:58.789Z,77.13
2022-11-08T14:55:07.884Z,77.26
2022-11-08T15:00:15.987Z,77.50
2022-11-08T15:05:48.128Z,77.41
2022-11-08T15:11:07.213Z,77.36
2022-11-08T15:16:11.631Z,77.59
2022-11-08T15:21:30.334Z,77.35
2022-11-08T15:26:35.789Z,77.46
2022-11-08T15:31:43.507Z,77.24
2022-11-08T15:36:48.187Z,77.15
2022-11-08T15:42:27.146Z,77.29
2022-11-08T15:47:42.230Z,77.36
2022-11-08T15:52:47.501Z,77.44
2022-11-08T15:57:51.184Z,77.24
2022-11-08T16:02:55.225Z,77.23
2022-11-08T16:08:00.983Z,77.34
2022-11-08T16:13:05.510Z,77.28
2022-11-08T16:18:12.535Z,77.39
2022-11-08T16:23:15.865Z,77.92
2022-11-08T16:28:29.871Z,78.13
2022-11-08T16:33:35.314Z,78.43
2022-11-08T16:38:38.719Z,78.45
2022-11-08T16:43:41.975Z,78.58
2022-11-08T16:48:49.907Z,78.76
2022-11-08T16:53:54.414Z,78.77
2022-11-08T16:58:57.731Z,79.02
2022-11-08T17:04:03.057Z,79.17
2022-11-08T17:09:15.979Z,79.33
2022-11-08T17:14:19.532Z,79.38
2022-11-08T17:19:22.685Z,79.41
2022-11-08T17:24:25.512Z,79.33
2022-11-08T17:29:28.697Z,79.11
2022-11-08T17:34:33.730Z,79.13
2022-11-08T17:39:37.112Z,78.84
2022-11-08T17:44:40.485Z,78.81
2022-11-08T17:49:44.249Z,78.56
2022-11-08T17:54:52.665Z,78.29
2022-11-08T17:59:56.543Z,77.97
2022-11-08T18:05:00.146Z,77.83
2022-11-08T18:10:03.747Z,77.38
2022-11-08T18:15:09.015Z,77.04
2022-11-08T18:20:12.673Z,76.88
2022-11-08T18:25:16.490Z,76.63
2022-11-08T18:30:19.780Z,76.35
2022-11-08T18:35:23.644Z,76.07
2022-11-08T18:40:27.295Z,75.73
2022-11-08T18:45:31.084Z,75.67
2022-11-08T18:50:35.672Z,75.67
2022-11-08T18:55:39.663Z,75.61
2022-11-08T19:00:43.365Z,75.65
2022-11-08T19:05:46.990Z,75.60
2022-11-08T19:11:00.637Z,75.80
2022-11-08T19:16:06.094Z,75.77
2022-11-08T19:21:21.196Z,75.77
2022-11-08T19:26:26.465Z,76.02
2022-11-08T19:31:29.778Z,76.19
2022-11-08T19:36:32.818Z,76.26
2022-11-08T19:41:37.006Z,76.16
2022-11-08T19:46:40.567Z,76.38
2022-11-08T19:51:44.221Z,76.47
2022-11-08T19:57:04.545Z,76.46
2022-11-08T20:02:09.490Z,76.74
2022-11-08T20:07:12.940Z,76.56
2022-11-08T20:12:16.262Z,76.86
2022-11-08T20:17:19.652Z,76.86
2022-11-08T20:22:22.770Z,76.65
2022-11-08T20:27:25.969Z,76.76
2022-11-08T20:32:29.550Z,76.77
2022-11-08T20:37:33.097Z,77.16
2022-11-08T20:42:36.437Z,77.15
2022-11-08T20:47:42.532Z,76.95
2022-11-08T20:52:46.796Z,77.14
2022-11-08T20:57:50.307Z,77.35
2022-11-08T21:02:53.812Z,77.60
2022-11-08T21:08:03.226Z,77.53
2022-11-08T21:13:20.818Z,77.60
2022-11-08T21:18:25.781Z,77.49
2022-11-08T21:23:29.086Z,77.46
2022-11-08T21:28:33.848Z,77.81
2022-11-08T21:33:38.016Z,77.56
2022-11-08T21:38:41.854Z,77.56
2022-11-08T21:43:45.618Z,77.79
2022-11-08T21:48:57.100Z,77.77
2022-11-08T21:54:00.206Z,77.60
2022-11-08T21:59:03.551Z,77.37
2022-11-08T22:04:06.907Z,77.33
2022-11-08T22:09:10.647Z,77.45
2022-11-08T22:14:14.661Z,77.52
2022-11-08T22:19:18.099Z,77.38
2022-11-08T22:24:21.964Z,76.99
2022-11-08T22:29:25.350Z,77.40
2022-11-08T22:34:28.917Z,76.92
2022-11-08T22:39:32.382Z,76.87
2022-11-08T22:44:35.693Z,76.96
2022-11-08T22:49:44.774Z,76.90
2022-11-08T22:54:48.303Z,76.77
2022-11-08T22:59:51.774Z,77.04
2022-11-08T23:04:55.170Z,76.92
2022-11-08T23:09:58.527Z,76.88
2022-11-08T23:15:02.152Z,76.66
2022-11-08T23:20:06.783Z,76.78
2022-11-08T23:25:10.268Z,76.77
2022-11-08T23:30:15.422Z,76.79
2022-11-08T23:35:20.808Z,76.72
2022-11-08T23:40:24.302Z,76.35
2022-11-08T23:45:27.644Z,76.56
2022-11-08T23:50:30.894Z,76.46
2022-11-08T23:55:34.478Z,76.20
